sensor_id;sensor_type;location;lat;lon;timestamp;P1;durP1;ratioP1;P2;durP2;ratioP2
34982;SDS011;21187;50.976;13.720;2024-01-15T00:02:35;20.85;;;7.88;;
34982;SDS011;21187;50.976;13.720;2024-01-15T00:07:37;16.42;;;6.78;;
34982;SDS011;21187;50.976;13.720;2024-01-15T00:12:38;23.45;;;7.32;;
34982;SDS011;21187;50.976;13.720;2024-01-15T00:17:40;21.25;;;7.57;;
34982;SDS011;21187;50.976;13.720;2024-01-15T00:22:42;18.40;;;7.30;;
34982;SDS011;21187;50.976;13.720;2024-01-15T00:27:44;19.35;;;6.65;;
34982;SDS011;21187;50.976;13.720;2024-01-15T00:32:46;23.10;;;8.05;;
34982;SDS011;21187;50.976;13.720;2024-01-15T00:37:48;15.55;;;6.10;;
34982;SDS011;21187;50.976;13.720;2024-01-15T00:42:50;16.92;;;6.78;;
34982;SDS011;21187;50.976;13.720;2024-01-15T00:47:52;17.17;;;7.18;;
34982;SDS011;21187;50.976;13.720;2024-01-15T00:52:54;17.30;;;7.28;;
34982;SDS011;21187;50.976;13.720;2024-01-15T00:57:56;15.77;;;6.38;;
34982;SDS011;21187;50.976;13.720;2024-01-15T01:02:58;17.52;;;7.22;;
34982;SDS011;21187;50.976;13.720;2024-01-15T01:08:00;19.60;;;7.25;;
34982;SDS011;21187;50.976;13.720;2024-01-15T01:13:02;16.35;;;6.47;;
34982;SDS011;21187;50.976;13.720;2024-01-15T01:18:04;22.90;;;7.50;;
34982;SDS011;21187;50.976;13.720;2024-01-15T01:23:06;16.90;;;6.20;;
34982;SDS011;21187;50.976;13.720;2024-01-15T01:28:08;17.02;;;7.35;;
34982;SDS011;21187;50.976;13.720;2024-01-15T01:33:10;18.92;;;6.63;;
34982;SDS011;21187;50.976;13.720;2024-01-15T01:38:12;22.52;;;7.75;;
34982;SDS011;21187;50.976;13.720;2024-01-15T01:43:14;19.33;;;6.95;;
34982;SDS011;21187;50.976;13.720;2024-01-15T01:48:16;15.05;;;6.25;;
34982;SDS011;21187;50.976;13.720;2024-01-15T01:53:18;16.80;;;7.47;;
34982;SDS011;21187;50.976;13.720;2024-01-15T01:58:20;20.40;;;7.28;;
34982;SDS011;21187;50.976;13.720;2024-01-15T02:03:22;17.42;;;6.15;;
34982;SDS011;21187;50.976;13.720;2024-01-15T02:08:25;20.75;;;7.88;;
34982;SDS011;21187;50.976;13.720;2024-01-15T02:13:27;19.45;;;7.60;;
34982;SDS011;21187;50.976;13.720;2024-01-15T02:18:38;22.30;;;7.53;;
34982;SDS011;21187;50.976;13.720;2024-01-15T02:23:44;19.50;;;7.90;;
34982;SDS011;21187;50.976;13.720;2024-01-15T02:28:46;19.60;;;7.35;;
34982;SDS011;21187;50.976;13.720;2024-01-15T02:33:48;16.08;;;8.13;;
34982;SDS011;21187;50.976;13.720;2024-01-15T02:38:50;22.73;;;8.40;;
34982;SDS011;21187;50.976;13.720;2024-01-15T02:43:52;22.75;;;7.55;;
34982;SDS011;21187;50.976;13.720;2024-01-15T02:48:54;21.27;;;8.10;;
34982;SDS011;21187;50.976;13.720;2024-01-15T02:53:56;19.15;;;7.72;;
34982;SDS011;21187;50.976;13.720;2024-01-15T02:58:58;22.63;;;7.57;;
34982;SDS011;21187;50.976;13.720;2024-01-15T03:04:00;20.67;;;8.93;;
34982;SDS011;21187;50.976;13.720;2024-01-15T03:09:02;20.02;;;7.75;;
34982;SDS011;21187;50.976;13.720;2024-01-15T03:14:05;19.92;;;8.00;;
34982;SDS011;21187;50.976;13.720;2024-01-15T03:19:07;20.40;;;8.85;;
34982;SDS011;21187;50.976;13.720;2024-01-15T03:24:09;20.67;;;7.65;;
34982;SDS011;21187;50.976;13.720;2024-01-15T03:29:11;19.98;;;8.65;;
34982;SDS011;21187;50.976;13.720;2024-01-15T03:34:12;25.10;;;9.73;;
34982;SDS011;21187;50.976;13.720;2024-01-15T03:39:15;25.33;;;9.23;;
34982;SDS011;21187;50.976;13.720;2024-01-15T03:44:17;26.40;;;9.98;;
34982;SDS011;21187;50.976;13.720;2024-01-15T03:49:18;31.00;;;10.85;;
34982;SDS011;21187;50.976;13.720;2024-01-15T03:54:21;27.75;;;11.10;;
34982;SDS011;21187;50.976;13.720;2024-01-15T03:59:22;27.25;;;10.68;;
34982;SDS011;21187;50.976;13.720;2024-01-15T04:04:24;31.55;;;12.20;;
34982;SDS011;21187;50.976;13.720;2024-01-15T04:09:26;28.45;;;9.70;;
34982;SDS011;21187;50.976;13.720;2024-01-15T04:14:28;23.90;;;10.90;;
34982;SDS011;21187;50.976;13.720;2024-01-15T04:19:30;22.17;;;9.85;;
34982;SDS011;21187;50.976;13.720;2024-01-15T04:24:32;24.77;;;10.48;;
34982;SDS011;21187;50.976;13.720;2024-01-15T04:29:34;31.75;;;10.95;;
34982;SDS011;21187;50.976;13.720;2024-01-15T04:34:40;26.80;;;10.02;;
34982;SDS011;21187;50.976;13.720;2024-01-15T04:39:42;24.05;;;9.95;;
34982;SDS011;21187;50.976;13.720;2024-01-15T04:44:44;29.67;;;10.45;;
34982;SDS011;21187;50.976;13.720;2024-01-15T04:49:46;28.13;;;9.32;;
34982;SDS011;21187;50.976;13.720;2024-01-15T04:54:50;32.20;;;10.25;;
34982;SDS011;21187;50.976;13.720;2024-01-15T04:59:52;26.58;;;10.15;;
34982;SDS011;21187;50.976;13.720;2024-01-15T05:04:54;27.23;;;10.88;;
34982;SDS011;21187;50.976;13.720;2024-01-15T05:09:56;25.38;;;9.30;;
34982;SDS011;21187;50.976;13.720;2024-01-15T05:14:58;21.73;;;8.48;;
34982;SDS011;21187;50.976;13.720;2024-01-15T05:20:00;29.13;;;10.48;;
34982;SDS011;21187;50.976;13.720;2024-01-15T05:25:02;26.88;;;9.90;;
34982;SDS011;21187;50.976;13.720;2024-01-15T05:30:04;24.10;;;8.38;;
34982;SDS011;21187;50.976;13.720;2024-01-15T05:35:06;25.52;;;9.75;;
34982;SDS011;21187;50.976;13.720;2024-01-15T05:40:09;24.60;;;10.43;;
34982;SDS011;21187;50.976;13.720;2024-01-15T05:45:11;27.40;;;10.30;;
34982;SDS011;21187;50.976;13.720;2024-01-15T05:50:13;26.73;;;8.68;;
34982;SDS011;21187;50.976;13.720;2024-01-15T05:55:16;27.70;;;9.50;;
34982;SDS011;21187;50.976;13.720;2024-01-15T06:00:20;27.75;;;10.25;;
34982;SDS011;21187;50.976;13.720;2024-01-15T06:05:22;22.88;;;9.32;;
34982;SDS011;21187;50.976;13.720;2024-01-15T06:10:24;25.30;;;10.50;;
34982;SDS011;21187;50.976;13.720;2024-01-15T06:15:26;23.95;;;9.25;;
34982;SDS011;21187;50.976;13.720;2024-01-15T06:20:28;22.67;;;9.73;;
34982;SDS011;21187;50.976;13.720;2024-01-15T06:25:31;24.77;;;9.93;;
34982;SDS011;21187;50.976;13.720;2024-01-15T06:30:33;22.63;;;8.27;;
34982;SDS011;21187;50.976;13.720;2024-01-15T06:35:35;23.92;;;9.88;;
34982;SDS011;21187;50.976;13.720;2024-01-15T06:40:37;29.13;;;9.88;;
34982;SDS011;21187;50.976;13.720;2024-01-15T06:45:41;23.98;;;7.90;;
34982;SDS011;21187;50.976;13.720;2024-01-15T06:50:43;23.90;;;8.27;;
34982;SDS011;21187;50.976;13.720;2024-01-15T06:55:46;18.05;;;8.18;;
34982;SDS011;21187;50.976;13.720;2024-01-15T07:00:48;17.75;;;6.40;;
34982;SDS011;21187;50.976;13.720;2024-01-15T07:05:50;18.85;;;8.75;;
34982;SDS011;21187;50.976;13.720;2024-01-15T07:10:52;18.35;;;6.93;;
34982;SDS011;21187;50.976;13.720;2024-01-15T07:15:55;19.17;;;6.82;;
34982;SDS011;21187;50.976;13.720;2024-01-15T07:20:56;21.13;;;7.55;;
34982;SDS011;21187;50.976;13.720;2024-01-15T07:25:59;23.33;;;7.22;;
34982;SDS011;21187;50.976;13.720;2024-01-15T07:31:01;14.18;;;5.78;;
34982;SDS011;21187;50.976;13.720;2024-01-15T07:36:03;16.35;;;6.00;;
34982;SDS011;21187;50.976;13.720;2024-01-15T07:41:06;15.15;;;7.05;;
34982;SDS011;21187;50.976;13.720;2024-01-15T07:46:08;20.02;;;6.53;;
34982;SDS011;21187;50.976;13.720;2024-01-15T07:51:10;21.05;;;7.57;;
34982;SDS011;21187;50.976;13.720;2024-01-15T07:56:13;19.63;;;8.43;;
34982;SDS011;21187;50.976;13.720;2024-01-15T08:01:15;18.70;;;7.55;;
34982;SDS011;21187;50.976;13.720;2024-01-15T08:06:17;23.17;;;7.80;;
34982;SDS011;21187;50.976;13.720;2024-01-15T08:11:19;17.67;;;7.07;;
34982;SDS011;21187;50.976;13.720;2024-01-15T08:16:21;20.80;;;7.97;;
34982;SDS011;21187;50.976;13.720;2024-01-15T08:21:25;21.70;;;6.90;;
34982;SDS011;21187;50.976;13.720;2024-01-15T08:26:31;20.17;;;6.53;;
34982;SDS011;21187;50.976;13.720;2024-01-15T08:31:34;21.98;;;6.47;;
34982;SDS011;21187;50.976;13.720;2024-01-15T08:36:36;20.58;;;7.57;;
34982;SDS011;21187;50.976;13.720;2024-01-15T08:41:38;18.08;;;6.53;;
34982;SDS011;21187;50.976;13.720;2024-01-15T08:46:40;19.45;;;5.78;;
34982;SDS011;21187;50.976;13.720;2024-01-15T08:51:41;15.35;;;6.38;;
34982;SDS011;21187;50.976;13.720;2024-01-15T08:56:43;15.45;;;5.57;;
34982;SDS011;21187;50.976;13.720;2024-01-15T09:01:45;14.77;;;5.53;;
34982;SDS011;21187;50.976;13.720;2024-01-15T09:06:47;12.25;;;5.68;;
34982;SDS011;21187;50.976;13.720;2024-01-15T09:11:49;15.65;;;6.43;;
34982;SDS011;21187;50.976;13.720;2024-01-15T09:16:51;15.80;;;6.18;;
34982;SDS011;21187;50.976;13.720;2024-01-15T09:21:53;14.75;;;6.18;;
34982;SDS011;21187;50.976;13.720;2024-01-15T09:26:55;18.85;;;6.07;;
34982;SDS011;21187;50.976;13.720;2024-01-15T09:31:57;20.20;;;8.20;;
34982;SDS011;21187;50.976;13.720;2024-01-15T09:36:59;17.83;;;5.05;;
34982;SDS011;21187;50.976;13.720;2024-01-15T09:42:02;9.48;;;4.30;;
34982;SDS011;21187;50.976;13.720;2024-01-15T09:47:05;10.35;;;4.95;;
34982;SDS011;21187;50.976;13.720;2024-01-15T09:52:07;13.35;;;5.05;;
34982;SDS011;21187;50.976;13.720;2024-01-15T09:57:12;12.75;;;4.85;;
34982;SDS011;21187;50.976;13.720;2024-01-15T10:02:14;10.77;;;4.43;;
34982;SDS011;21187;50.976;13.720;2024-01-15T10:07:19;12.93;;;4.43;;
34982;SDS011;21187;50.976;13.720;2024-01-15T10:12:23;12.05;;;4.53;;
34982;SDS011;21187;50.976;13.720;2024-01-15T10:17:26;16.40;;;5.75;;
34982;SDS011;21187;50.976;13.720;2024-01-15T10:22:29;16.23;;;5.93;;
34982;SDS011;21187;50.976;13.720;2024-01-15T10:27:31;13.35;;;4.55;;
34982;SDS011;21187;50.976;13.720;2024-01-15T10:32:33;16.38;;;5.20;;
34982;SDS011;21187;50.976;13.720;2024-01-15T10:37:35;18.13;;;5.25;;
34982;SDS011;21187;50.976;13.720;2024-01-15T10:42:37;13.45;;;4.63;;
34982;SDS011;21187;50.976;13.720;2024-01-15T10:47:39;14.27;;;4.90;;
34982;SDS011;21187;50.976;13.720;2024-01-15T10:52:41;13.50;;;4.97;;
34982;SDS011;21187;50.976;13.720;2024-01-15T10:57:47;16.00;;;4.80;;
34982;SDS011;21187;50.976;13.720;2024-01-15T11:02:51;12.98;;;4.55;;
34982;SDS011;21187;50.976;13.720;2024-01-15T11:07:58;12.73;;;4.93;;
34982;SDS011;21187;50.976;13.720;2024-01-15T11:13:01;11.85;;;5.15;;
34982;SDS011;21187;50.976;13.720;2024-01-15T11:18:04;13.70;;;4.97;;
34982;SDS011;21187;50.976;13.720;2024-01-15T11:23:07;15.20;;;5.00;;
34982;SDS011;21187;50.976;13.720;2024-01-15T11:28:24;12.88;;;5.22;;
34982;SDS011;21187;50.976;13.720;2024-01-15T11:33:49;11.18;;;5.00;;
34982;SDS011;21187;50.976;13.720;2024-01-15T11:38:52;13.35;;;5.07;;
34982;SDS011;21187;50.976;13.720;2024-01-15T11:43:53;16.95;;;4.90;;
34982;SDS011;21187;50.976;13.720;2024-01-15T11:48:57;15.40;;;5.82;;
34982;SDS011;21187;50.976;13.720;2024-01-15T11:54:05;12.45;;;4.90;;
34982;SDS011;21187;50.976;13.720;2024-01-15T11:59:11;12.57;;;5.00;;
34982;SDS011;21187;50.976;13.720;2024-01-15T12:04:13;11.55;;;4.15;;
34982;SDS011;21187;50.976;13.720;2024-01-15T12:09:19;10.55;;;4.22;;
34982;SDS011;21187;50.976;13.720;2024-01-15T12:14:21;12.25;;;4.88;;
34982;SDS011;21187;50.976;13.720;2024-01-15T12:19:23;11.40;;;4.68;;
34982;SDS011;21187;50.976;13.720;2024-01-15T12:24:26;10.25;;;4.78;;
34982;SDS011;21187;50.976;13.720;2024-01-15T12:29:28;15.20;;;5.28;;
34982;SDS011;21187;50.976;13.720;2024-01-15T12:34:29;16.00;;;4.68;;
34982;SDS011;21187;50.976;13.720;2024-01-15T12:39:36;19.13;;;5.90;;
34982;SDS011;21187;50.976;13.720;2024-01-15T12:44:38;24.98;;;6.57;;
34982;SDS011;21187;50.976;13.720;2024-01-15T12:49:40;16.25;;;5.32;;
34982;SDS011;21187;50.976;13.720;2024-01-15T12:54:43;12.43;;;5.60;;
34982;SDS011;21187;50.976;13.720;2024-01-15T12:59:45;14.65;;;5.85;;
34982;SDS011;21187;50.976;13.720;2024-01-15T13:04:48;15.27;;;6.60;;
34982;SDS011;21187;50.976;13.720;2024-01-15T13:09:54;20.90;;;6.30;;
34982;SDS011;21187;50.976;13.720;2024-01-15T13:14:57;17.77;;;7.45;;
34982;SDS011;21187;50.976;13.720;2024-01-15T13:19:59;16.25;;;6.63;;
34982;SDS011;21187;50.976;13.720;2024-01-15T13:25:02;16.52;;;5.85;;
34982;SDS011;21187;50.976;13.720;2024-01-15T13:30:05;21.08;;;7.53;;
34982;SDS011;21187;50.976;13.720;2024-01-15T13:35:10;12.70;;;6.20;;
34982;SDS011;21187;50.976;13.720;2024-01-15T13:40:15;20.42;;;7.03;;
34982;SDS011;21187;50.976;13.720;2024-01-15T13:45:21;13.43;;;5.65;;
34982;SDS011;21187;50.976;13.720;2024-01-15T13:50:25;17.50;;;7.38;;
34982;SDS011;21187;50.976;13.720;2024-01-15T13:55:27;19.60;;;7.82;;
34982;SDS011;21187;50.976;13.720;2024-01-15T14:00:31;20.02;;;6.75;;
34982;SDS011;21187;50.976;13.720;2024-01-15T14:05:35;21.58;;;8.73;;
34982;SDS011;21187;50.976;13.720;2024-01-15T14:10:37;19.20;;;7.47;;
34982;SDS011;21187;50.976;13.720;2024-01-15T14:15:39;22.13;;;7.68;;
34982;SDS011;21187;50.976;13.720;2024-01-15T14:20:41;21.30;;;7.50;;
34982;SDS011;21187;50.976;13.720;2024-01-15T14:25:44;19.10;;;8.02;;
34982;SDS011;21187;50.976;13.720;2024-01-15T14:30:46;19.67;;;6.80;;
34982;SDS011;21187;50.976;13.720;2024-01-15T14:35:48;25.48;;;7.97;;
34982;SDS011;21187;50.976;13.720;2024-01-15T14:40:50;22.60;;;8.07;;
34982;SDS011;21187;50.976;13.720;2024-01-15T14:45:51;20.67;;;7.78;;
34982;SDS011;21187;50.976;13.720;2024-01-15T14:50:53;18.88;;;7.57;;
34982;SDS011;21187;50.976;13.720;2024-01-15T14:55:55;35.97;;;10.38;;
34982;SDS011;21187;50.976;13.720;2024-01-15T15:00:57;22.02;;;8.88;;
34982;SDS011;21187;50.976;13.720;2024-01-15T15:06:00;30.10;;;12.55;;
34982;SDS011;21187;50.976;13.720;2024-01-15T15:11:03;28.95;;;10.27;;
34982;SDS011;21187;50.976;13.720;2024-01-15T15:16:05;20.70;;;8.82;;
34982;SDS011;21187;50.976;13.720;2024-01-15T15:21:08;23.42;;;8.73;;
34982;SDS011;21187;50.976;13.720;2024-01-15T15:26:10;21.08;;;8.20;;
34982;SDS011;21187;50.976;13.720;2024-01-15T15:31:12;18.17;;;7.40;;
34982;SDS011;21187;50.976;13.720;2024-01-15T15:36:14;19.17;;;8.20;;
34982;SDS011;21187;50.976;13.720;2024-01-15T15:41:15;15.52;;;6.35;;
34982;SDS011;21187;50.976;13.720;2024-01-15T15:46:17;17.25;;;8.13;;
34982;SDS011;21187;50.976;13.720;2024-01-15T15:51:20;18.17;;;7.35;;
34982;SDS011;21187;50.976;13.720;2024-01-15T15:56:22;20.20;;;7.88;;
34982;SDS011;21187;50.976;13.720;2024-01-15T16:01:24;22.90;;;7.45;;
34982;SDS011;21187;50.976;13.720;2024-01-15T16:06:26;23.50;;;9.77;;
34982;SDS011;21187;50.976;13.720;2024-01-15T16:11:29;20.70;;;8.75;;
34982;SDS011;21187;50.976;13.720;2024-01-15T16:16:31;22.08;;;8.45;;
34982;SDS011;21187;50.976;13.720;2024-01-15T16:21:53;20.38;;;7.55;;
34982;SDS011;21187;50.976;13.720;2024-01-15T16:27:16;19.13;;;7.10;;
34982;SDS011;21187;50.976;13.720;2024-01-15T16:32:17;20.25;;;9.30;;
34982;SDS011;21187;50.976;13.720;2024-01-15T16:37:20;20.42;;;9.13;;
34982;SDS011;21187;50.976;13.720;2024-01-15T16:42:22;18.52;;;6.60;;
34982;SDS011;21187;50.976;13.720;2024-01-15T16:47:24;17.40;;;7.00;;
34982;SDS011;21187;50.976;13.720;2024-01-15T16:52:26;22.70;;;8.57;;
34982;SDS011;21187;50.976;13.720;2024-01-15T16:57:27;18.75;;;7.97;;
34982;SDS011;21187;50.976;13.720;2024-01-15T17:02:29;18.65;;;9.35;;
34982;SDS011;21187;50.976;13.720;2024-01-15T17:07:31;20.33;;;9.25;;
34982;SDS011;21187;50.976;13.720;2024-01-15T17:12:33;18.75;;;7.78;;
34982;SDS011;21187;50.976;13.720;2024-01-15T17:17:35;25.35;;;9.38;;
34982;SDS011;21187;50.976;13.720;2024-01-15T17:22:37;24.58;;;7.95;;
34982;SDS011;21187;50.976;13.720;2024-01-15T17:27:39;13.48;;;6.97;;
34982;SDS011;21187;50.976;13.720;2024-01-15T17:32:41;16.35;;;7.38;;
34982;SDS011;21187;50.976;13.720;2024-01-15T17:37:43;13.68;;;6.13;;
34982;SDS011;21187;50.976;13.720;2024-01-15T17:42:45;17.02;;;6.70;;
34982;SDS011;21187;50.976;13.720;2024-01-15T17:47:49;14.05;;;6.15;;
34982;SDS011;21187;50.976;13.720;2024-01-15T17:52:51;13.23;;;6.45;;
34982;SDS011;21187;50.976;13.720;2024-01-15T17:57:53;16.27;;;5.95;;
34982;SDS011;21187;50.976;13.720;2024-01-15T18:02:57;13.85;;;6.68;;
34982;SDS011;21187;50.976;13.720;2024-01-15T18:07:59;15.20;;;6.70;;
34982;SDS011;21187;50.976;13.720;2024-01-15T18:13:01;13.95;;;6.90;;
34982;SDS011;21187;50.976;13.720;2024-01-15T18:18:04;23.70;;;9.15;;
34982;SDS011;21187;50.976;13.720;2024-01-15T18:23:06;17.80;;;7.00;;
34982;SDS011;21187;50.976;13.720;2024-01-15T18:28:08;13.00;;;6.43;;
34982;SDS011;21187;50.976;13.720;2024-01-15T18:33:12;21.13;;;8.60;;
34982;SDS011;21187;50.976;13.720;2024-01-15T18:38:14;19.70;;;7.97;;
34982;SDS011;21187;50.976;13.720;2024-01-15T18:43:16;24.15;;;9.52;;
34982;SDS011;21187;50.976;13.720;2024-01-15T18:48:20;19.42;;;8.63;;
34982;SDS011;21187;50.976;13.720;2024-01-15T18:53:22;22.02;;;8.57;;
34982;SDS011;21187;50.976;13.720;2024-01-15T18:58:24;20.00;;;8.27;;
34982;SDS011;21187;50.976;13.720;2024-01-15T19:03:27;19.33;;;9.23;;
34982;SDS011;21187;50.976;13.720;2024-01-15T19:08:29;20.15;;;7.30;;
34982;SDS011;21187;50.976;13.720;2024-01-15T19:13:32;17.15;;;7.07;;
34982;SDS011;21187;50.976;13.720;2024-01-15T19:18:34;17.02;;;7.55;;
34982;SDS011;21187;50.976;13.720;2024-01-15T19:23:36;20.08;;;7.95;;
34982;SDS011;21187;50.976;13.720;2024-01-15T19:28:39;16.25;;;7.65;;
34982;SDS011;21187;50.976;13.720;2024-01-15T19:33:41;19.20;;;7.82;;
34982;SDS011;21187;50.976;13.720;2024-01-15T19:38:44;19.33;;;7.70;;
34982;SDS011;21187;50.976;13.720;2024-01-15T19:43:46;29.25;;;8.07;;
34982;SDS011;21187;50.976;13.720;2024-01-15T19:48:48;16.52;;;7.97;;
34982;SDS011;21187;50.976;13.720;2024-01-15T19:53:51;21.42;;;9.43;;
34982;SDS011;21187;50.976;13.720;2024-01-15T19:58:53;20.95;;;8.73;;
34982;SDS011;21187;50.976;13.720;2024-01-15T20:03:55;13.60;;;5.63;;
34982;SDS011;21187;50.976;13.720;2024-01-15T20:08:57;15.55;;;6.43;;
34982;SDS011;21187;50.976;13.720;2024-01-15T20:14:00;33.80;;;6.53;;
34982;SDS011;21187;50.976;13.720;2024-01-15T20:19:02;13.45;;;5.57;;
34982;SDS011;21187;50.976;13.720;2024-01-15T20:24:04;9.90;;;5.55;;
34982;SDS011;21187;50.976;13.720;2024-01-15T20:29:07;11.45;;;4.22;;
34982;SDS011;21187;50.976;13.720;2024-01-15T20:34:10;11.35;;;5.60;;
34982;SDS011;21187;50.976;13.720;2024-01-15T20:39:12;13.45;;;5.85;;
34982;SDS011;21187;50.976;13.720;2024-01-15T20:44:14;18.48;;;5.93;;
34982;SDS011;21187;50.976;13.720;2024-01-15T20:49:15;14.00;;;5.93;;
34982;SDS011;21187;50.976;13.720;2024-01-15T20:54:17;10.00;;;4.65;;
34982;SDS011;21187;50.976;13.720;2024-01-15T20:59:19;12.60;;;5.60;;
34982;SDS011;21187;50.976;13.720;2024-01-15T21:04:21;13.70;;;6.00;;
34982;SDS011;21187;50.976;13.720;2024-01-15T21:09:23;10.15;;;4.28;;
34982;SDS011;21187;50.976;13.720;2024-01-15T21:14:25;13.02;;;5.10;;
34982;SDS011;21187;50.976;13.720;2024-01-15T21:19:27;10.63;;;4.85;;
34982;SDS011;21187;50.976;13.720;2024-01-15T21:24:29;9.77;;;4.20;;
34982;SDS011;21187;50.976;13.720;2024-01-15T21:29:31;7.25;;;3.45;;
34982;SDS011;21187;50.976;13.720;2024-01-15T21:34:33;8.52;;;3.75;;
34982;SDS011;21187;50.976;13.720;2024-01-15T21:39:35;8.65;;;4.10;;
34982;SDS011;21187;50.976;13.720;2024-01-15T21:44:37;9.35;;;3.67;;
34982;SDS011;21187;50.976;13.720;2024-01-15T21:49:40;10.50;;;3.97;;
34982;SDS011;21187;50.976;13.720;2024-01-15T21:54:43;8.80;;;3.65;;
34982;SDS011;21187;50.976;13.720;2024-01-15T21:59:45;6.20;;;3.08;;
34982;SDS011;21187;50.976;13.720;2024-01-15T22:04:47;8.23;;;3.42;;
34982;SDS011;21187;50.976;13.720;2024-01-15T22:09:48;5.45;;;2.92;;
34982;SDS011;21187;50.976;13.720;2024-01-15T22:14:50;3.10;;;2.08;;
34982;SDS011;21187;50.976;13.720;2024-01-15T22:19:52;7.03;;;3.10;;
34982;SDS011;21187;50.976;13.720;2024-01-15T22:24:54;5.53;;;3.00;;
34982;SDS011;21187;50.976;13.720;2024-01-15T22:29:56;6.53;;;2.72;;
34982;SDS011;21187;50.976;13.720;2024-01-15T22:34:58;11.70;;;3.50;;
34982;SDS011;21187;50.976;13.720;2024-01-15T22:40:00;6.20;;;2.80;;
34982;SDS011;21187;50.976;13.720;2024-01-15T22:45:02;5.43;;;2.60;;
34982;SDS011;21187;50.976;13.720;2024-01-15T22:50:05;11.45;;;3.20;;
34982;SDS011;21187;50.976;13.720;2024-01-15T22:55:07;9.88;;;3.20;;
34982;SDS011;21187;50.976;13.720;2024-01-15T23:00:09;16.65;;;3.67;;
34982;SDS011;21187;50.976;13.720;2024-01-15T23:05:20;12.82;;;2.72;;
34982;SDS011;21187;50.976;13.720;2024-01-15T23:10:22;9.80;;;3.30;;
34982;SDS011;21187;50.976;13.720;2024-01-15T23:15:24;8.77;;;2.22;;
34982;SDS011;21187;50.976;13.720;2024-01-15T23:20:29;5.60;;;2.05;;
34982;SDS011;21187;50.976;13.720;2024-01-15T23:25:31;9.88;;;1.95;;
34982;SDS011;21187;50.976;13.720;2024-01-15T23:30:33;9.93;;;1.92;;
34982;SDS011;21187;50.976;13.720;2024-01-15T23:35:35;7.32;;;2.17;;
34982;SDS011;21187;50.976;13.720;2024-01-15T23:40:37;7.53;;;2.03;;
34982;SDS011;21187;50.976;13.720;2024-01-15T23:45:39;3.63;;;1.63;;
34982;SDS011;21187;50.976;13.720;2024-01-15T23:50:42;8.93;;;1.98;;
34982;SDS011;21187;50.976;13.720;2024-01-15T23:55:44;9.48;;;1.55;;
